Time;durP1;ratioP1;P1;durP2;ratioP2;P2;SDS_P1;SDS_P2;PMS_P1;PMS_P2;Temp;Humidity;BMP_temperature;BMP_pressure;BME280_temperature;BME280_humidity;BME280_pressure;Samples;Min_cycle;Max_cycle;Signal;HPM_P1;HPM_P2
2022/02/28 00:01:47;;;;;;;8.83;5.97;;;2.00;99.00;;;;;;5096452;28;20211;-59
2022/02/28 00:04:14;;;;;;;9.10;6.17;;;2.00;99.00;;;;;;5096133;28;20227;-60
2022/02/28 00:06:40;;;;;;;8.50;5.70;;;2.00;99.00;;;;;;5096146;28;20311;-59
2022/02/28 00:09:07;;;;;;;9.63;7.30;;;1.90;99.10;;;;;;5096610;28;20204;-60
2022/02/28 00:11:34;;;;;;;7.63;5.70;;;1.90;99.10;;;;;;5096291;28;20727;-59
2022/02/28 00:14:00;;;;;;;7.63;5.57;;;1.90;99.00;;;;;;5096260;28;20204;-59
2022/02/28 00:16:27;;;;;;;9.47;5.70;;;1.80;99.10;;;;;;5095590;28;20570;-59
2022/02/28 00:18:55;;;;;;;8.03;5.73;;;1.80;99.30;;;;;;5096121;28;20216;-60
2022/02/28 00:21:22;;;;;;;7.07;5.60;;;1.70;99.40;;;;;;5095800;28;20196;-60
2022/02/28 00:23:49;;;;;;;7.90;5.63;;;1.70;99.30;;;;;;5095678;28;20212;-60
2022/02/28 00:26:16;;;;;;;7.10;5.67;;;1.80;99.30;;;;;;5096095;28;20745;-60
2022/02/28 00:28:43;;;;;;;7.43;5.67;;;1.70;99.30;;;;;;5095944;28;20599;-61
2022/02/28 00:31:09;;;;;;;7.87;5.40;;;1.70;99.30;;;;;;5095763;28;20340;-61
2022/02/28 00:33:37;;;;;;;7.57;5.57;;;1.70;99.30;;;;;;5095409;28;20257;-60
2022/02/28 00:36:05;;;;;;;8.53;5.70;;;1.70;99.30;;;;;;5095893;28;20219;-61
2022/02/28 00:38:32;;;;;;;7.70;5.60;;;1.70;99.40;;;;;;5095544;28;20256;-60
2022/02/28 00:40:59;;;;;;;7.83;5.40;;;1.70;99.40;;;;;;5095915;28;20596;-60
2022/02/28 00:43:26;;;;;;;8.47;5.80;;;1.70;99.40;;;;;;5095675;28;20207;-61
2022/02/28 00:45:53;;;;;;;8.30;5.70;;;1.60;99.40;;;;;;5095362;28;20665;-60
2022/02/28 00:48:19;;;;;;;10.03;5.87;;;1.60;99.70;;;;;;5095322;28;20224;-61
2022/02/28 00:50:47;;;;;;;8.50;5.67;;;1.60;99.80;;;;;;5095076;28;20598;-58
2022/02/28 00:53:15;;;;;;;9.13;5.80;;;1.60;99.90;;;;;;5095139;28;20295;-60
2022/02/28 00:55:42;;;;;;;8.93;5.77;;;1.60;99.90;;;;;;5095283;28;20204;-59
2022/02/28 00:58:09;;;;;;;10.47;6.87;;;1.50;99.90;;;;;;5095254;28;20235;-59
2022/02/28 01:00:36;;;;;;;8.77;6.30;;;1.50;99.90;;;;;;5095258;28;20260;-60
2022/02/28 01:03:04;;;;;;;10.73;6.53;;;1.50;99.90;;;;;;5095299;28;20204;-60
2022/02/28 01:05:31;;;;;;;8.27;6.60;;;1.50;99.90;;;;;;5093517;28;20231;-59
2022/02/28 01:07:58;;;;;;;8.47;6.47;;;1.50;99.90;;;;;;5094968;28;20228;-59
2022/02/28 01:10:26;;;;;;;9.20;5.80;;;1.40;99.90;;;;;;5095152;28;20200;-59
2022/02/28 01:12:55;;;;;;;8.47;5.37;;;1.40;99.90;;;;;;5094955;28;20196;-60
2022/02/28 01:15:22;;;;;;;10.23;6.40;;;1.40;99.90;;;;;;5094373;28;20208;-60
2022/02/28 01:17:50;;;;;;;8.47;6.30;;;1.40;99.90;;;;;;5094385;28;20236;-60
2022/02/28 01:20:17;;;;;;;9.20;6.07;;;1.40;99.90;;;;;;5094716;28;20721;-60
2022/02/28 01:22:44;;;;;;;9.83;6.70;;;1.40;99.90;;;;;;5094896;28;20203;-60
2022/02/28 01:25:11;;;;;;;10.40;6.80;;;1.30;99.90;;;;;;5094534;28;20264;-60
2022/02/28 01:27:40;;;;;;;10.30;7.00;;;1.30;99.90;;;;;;5094626;28;20225;-59
2022/02/28 01:30:09;;;;;;;9.13;6.73;;;1.30;99.90;;;;;;5094777;28;20208;-59
2022/02/28 01:32:35;;;;;;;9.33;6.33;;;1.30;99.90;;;;;;5094708;28;20227;-59
2022/02/28 01:35:02;;;;;;;10.50;6.20;;;1.30;99.90;;;;;;5094766;28;20216;-60
2022/02/28 01:37:29;;;;;;;12.33;6.93;;;1.20;99.90;;;;;;5094433;28;20717;-60
2022/02/28 01:39:56;;;;;;;10.13;6.23;;;1.20;99.90;;;;;;5094533;28;20203;-60
2022/02/28 01:42:23;;;;;;;8.60;6.00;;;1.20;99.90;;;;;;5094511;28;20250;-59
2022/02/28 01:44:51;;;;;;;8.50;6.27;;;1.20;99.90;;;;;;5093954;28;20664;-60
2022/02/28 01:47:17;;;;;;;7.77;5.67;;;1.20;99.90;;;;;;5094348;28;20235;-59
2022/02/28 01:49:44;;;;;;;8.63;6.00;;;1.10;99.90;;;;;;5094233;28;20205;-59
2022/02/28 01:52:11;;;;;;;8.37;6.23;;;1.10;99.90;;;;;;5094049;28;20281;-60
2022/02/28 01:54:38;;;;;;;8.67;5.73;;;1.10;99.90;;;;;;5093370;28;20599;-59
2022/02/28 01:57:05;;;;;;;7.30;5.60;;;1.10;99.90;;;;;;5094707;28;20520;-59
2022/02/28 01:59:31;;;;;;;8.63;5.90;;;1.10;99.90;;;;;;5094461;28;20690;-60
2022/02/28 02:01:59;;;;;;;8.57;5.80;;;1.10;99.90;;;;;;5093880;28;20574;-59
2022/02/28 02:04:26;;;;;;;7.70;5.93;;;1.00;99.90;;;;;;5093790;28;20208;-59
2022/02/28 02:06:53;;;;;;;7.43;5.70;;;1.00;99.90;;;;;;5093834;28;20746;-60
2022/02/28 02:09:20;;;;;;;8.60;6.10;;;1.00;99.90;;;;;;5093902;28;20277;-59
2022/02/28 02:11:47;;;;;;;6.77;5.03;;;1.00;99.90;;;;;;5093798;28;20224;-60
2022/02/28 02:14:14;;;;;;;9.60;6.10;;;0.90;99.90;;;;;;5093944;28;20207;-60
2022/02/28 02:16:41;;;;;;;8.53;5.87;;;0.90;99.90;;;;;;5093390;28;20215;-59
2022/02/28 02:19:10;;;;;;;8.43;5.77;;;0.90;99.90;;;;;;5093920;28;20212;-60
2022/02/28 02:21:38;;;;;;;8.43;5.80;;;0.90;99.90;;;;;;5094084;28;20254;-60
2022/02/28 02:24:05;;;;;;;7.03;5.67;;;0.90;99.90;;;;;;5093402;28;20219;-59
2022/02/28 02:26:31;;;;;;;8.57;5.60;;;0.90;99.90;;;;;;5093467;28;20201;-60
2022/02/28 02:28:58;;;;;;;8.93;6.10;;;0.90;99.90;;;;;;5093770;28;20200;-60
2022/02/28 02:31:25;;;;;;;9.07;5.50;;;0.90;99.90;;;;;;5093677;28;20231;-59
2022/02/28 02:33:52;;;;;;;9.30;6.10;;;0.90;99.90;;;;;;5093417;28;20618;-60
2022/02/28 02:36:19;;;;;;;7.23;5.43;;;0.90;99.90;;;;;;5093495;28;20212;-60
2022/02/28 02:38:47;;;;;;;6.97;5.17;;;0.90;99.90;;;;;;5093277;28;20228;-59
2022/02/28 02:41:14;;;;;;;9.20;5.63;;;0.80;99.90;;;;;;5093485;28;20616;-60
2022/02/28 02:43:40;;;;;;;8.27;6.07;;;0.80;99.90;;;;;;5093383;28;20283;-60
2022/02/28 02:46:07;;;;;;;6.73;5.30;;;0.80;99.90;;;;;;5093317;28;20205;-59
2022/02/28 02:48:34;;;;;;;8.10;5.83;;;0.70;99.90;;;;;;5093095;28;20234;-61
2022/02/28 02:51:00;;;;;;;10.40;5.63;;;0.70;99.90;;;;;;5093289;28;20215;-59
2022/02/28 02:53:27;;;;;;;7.87;5.80;;;0.70;99.90;;;;;;5092947;28;20234;-59
2022/02/28 02:55:56;;;;;;;8.37;5.80;;;0.70;99.90;;;;;;5093340;28;20215;-60
2022/02/28 02:58:22;;;;;;;10.17;6.10;;;0.70;99.90;;;;;;5093093;28;20715;-59
2022/02/28 03:00:52;;;;;;;9.70;6.07;;;0.60;99.90;;;;;;5093290;28;20200;-60
2022/02/28 03:03:22;;;;;;;8.60;5.83;;;0.60;99.90;;;;;;5092978;28;20207;-60
2022/02/28 03:05:49;;;;;;;10.57;5.93;;;0.60;99.90;;;;;;5093152;28;20258;-60
2022/02/28 03:08:15;;;;;;;8.57;6.63;;;0.60;99.90;;;;;;5093145;28;20641;-59
2022/02/28 03:10:42;;;;;;;10.30;5.67;;;0.50;99.90;;;;;;5093078;28;20215;-60
2022/02/28 03:13:10;;;;;;;8.13;5.73;;;0.50;99.90;;;;;;5092924;28;20231;-60
2022/02/28 03:15:37;;;;;;;7.43;5.53;;;0.50;99.90;;;;;;5092381;28;20211;-60
2022/02/28 03:18:04;;;;;;;9.70;6.17;;;0.50;99.90;;;;;;5093300;28;20232;-61
2022/02/28 03:20:31;;;;;;;9.43;5.80;;;0.50;99.90;;;;;;5092822;28;20207;-61
2022/02/28 03:22:58;;;;;;;9.37;6.00;;;0.50;99.90;;;;;;5092897;28;20208;-60
2022/02/28 03:25:25;;;;;;;8.63;5.90;;;0.50;99.90;;;;;;5092451;28;20580;-61
2022/02/28 03:27:52;;;;;;;8.37;5.77;;;0.50;99.90;;;;;;5092062;28;20252;-61
2022/02/28 03:30:20;;;;;;;9.07;5.90;;;0.40;99.90;;;;;;5093199;28;20323;-61
2022/02/28 03:32:47;;;;;;;10.30;5.77;;;0.40;99.90;;;;;;5093054;28;20224;-60
2022/02/28 03:35:13;;;;;;;8.00;5.67;;;0.40;99.90;;;;;;5092741;28;20295;-59
2022/02/28 03:37:40;;;;;;;9.80;5.83;;;0.40;99.90;;;;;;5092979;28;20310;-60
2022/02/28 03:40:09;;;;;;;6.70;5.30;;;0.30;99.90;;;;;;5093021;28;20199;-60
2022/02/28 03:42:37;;;;;;;10.40;6.00;;;0.30;99.90;;;;;;5093410;28;20668;-60
2022/02/28 03:45:04;;;;;;;8.37;5.93;;;0.20;99.90;;;;;;5093936;28;20237;-59
2022/02/28 03:47:33;;;;;;;9.60;5.87;;;0.30;99.90;;;;;;5094733;28;20230;-60
2022/02/28 03:50:00;;;;;;;9.17;6.20;;;0.30;99.90;;;;;;5094259;28;20235;-60
2022/02/28 03:52:26;;;;;;;9.40;5.53;;;0.30;99.90;;;;;;5094003;28;20231;-60
2022/02/28 03:54:53;;;;;;;8.50;5.53;;;0.30;99.90;;;;;;5093811;28;20222;-60
2022/02/28 03:57:20;;;;;;;9.53;5.57;;;0.30;99.90;;;;;;5093212;28;20224;-60
2022/02/28 03:59:46;;;;;;;9.20;5.93;;;0.20;99.90;;;;;;5092216;28;20785;-60
2022/02/28 04:02:13;;;;;;;10.73;5.80;;;0.20;99.90;;;;;;5091915;28;20204;-60
2022/02/28 04:04:42;;;;;;;8.67;6.20;;;0.20;99.90;;;;;;5092146;28;20208;-60
2022/02/28 04:07:09;;;;;;;10.03;6.07;;;0.20;99.90;;;;;;5092882;28;20224;-60
2022/02/28 04:09:36;;;;;;;8.47;6.27;;;0.20;99.90;;;;;;5092556;28;20204;-60
2022/02/28 04:12:04;;;;;;;10.07;6.23;;;0.20;99.90;;;;;;5092179;28;20250;-60
2022/02/28 04:14:30;;;;;;;8.50;6.40;;;0.20;99.90;;;;;;5092736;28;20200;-61
2022/02/28 04:16:57;;;;;;;10.67;6.27;;;0.20;99.90;;;;;;5092043;28;20239;-61
2022/02/28 04:19:24;;;;;;;12.10;7.30;;;0.10;99.90;;;;;;5092484;28;20210;-61
2022/02/28 04:21:52;;;;;;;9.53;7.20;;;0.10;99.90;;;;;;5092409;28;20544;-61
2022/02/28 04:24:19;;;;;;;10.47;7.87;;;0.00;99.90;;;;;;5092196;28;20311;-60
2022/02/28 04:26:46;;;;;;;11.70;8.73;;;0.00;99.90;;;;;;5092194;28;20204;-61
2022/02/28 04:29:13;;;;;;;13.43;9.30;;;0.00;99.90;;;;;;5092412;28;20231;-60
2022/02/28 04:31:40;;;;;;;10.97;7.67;;;-0.10;99.90;;;;;;5092177;28;20204;-60
2022/02/28 04:34:07;;;;;;;15.60;8.83;;;-0.10;99.90;;;;;;5091980;28;20273;-61
2022/02/28 04:36:34;;;;;;;12.60;8.23;;;-0.10;99.90;;;;;;5091858;28;20675;-61
2022/02/28 04:39:03;;;;;;;11.30;7.97;;;-0.20;99.90;;;;;;5091959;28;20287;-61
2022/02/28 04:41:30;;;;;;;10.33;7.57;;;-0.20;99.90;;;;;;5095364;28;20204;-61
2022/02/28 04:43:57;;;;;;;12.37;7.87;;;-0.30;99.90;;;;;;5095014;28;20204;-60
2022/02/28 04:46:23;;;;;;;14.00;8.17;;;-0.30;99.90;;;;;;5095578;28;20205;-60
2022/02/28 04:48:50;;;;;;;10.03;7.60;;;-0.40;99.90;;;;;;5095261;28;20598;-60
2022/02/28 04:51:17;;;;;;;12.60;7.63;;;-0.50;99.90;;;;;;5095442;28;20207;-60
2022/02/28 04:53:43;;;;;;;12.50;7.67;;;-0.60;99.90;;;;;;5095565;28;20693;-62
2022/02/28 04:56:12;;;;;;;12.10;8.00;;;-0.60;99.90;;;;;;5096184;28;20212;-62
2022/02/28 04:58:38;;;;;;;11.60;7.50;;;-0.70;99.90;;;;;;5096139;28;20228;-61
2022/02/28 05:01:05;;;;;;;13.47;7.50;;;-0.80;99.90;;;;;;5095879;28;20672;-60
2022/02/28 05:03:32;;;;;;;11.53;8.10;;;-0.90;99.90;;;;;;5095818;28;20559;-61
2022/02/28 05:05:59;;;;;;;11.70;7.97;;;-1.00;99.90;;;;;;5095313;28;20368;-62
2022/02/28 05:08:25;;;;;;;10.87;8.00;;;-1.00;99.90;;;;;;5095520;28;20238;-61
2022/02/28 05:10:52;;;;;;;12.03;7.63;;;-0.90;99.90;;;;;;5095322;28;20200;-61
2022/02/28 05:13:20;;;;;;;11.17;7.60;;;-1.00;99.90;;;;;;5095497;28;20228;-62
2022/02/28 05:15:47;;;;;;;14.20;8.00;;;-1.00;99.90;;;;;;5095197;28;20565;-62
2022/02/28 05:18:14;;;;;;;12.87;8.30;;;-1.10;99.90;;;;;;5094773;28;20716;-62
2022/02/28 05:20:41;;;;;;;13.27;7.80;;;-1.10;99.90;;;;;;5095565;28;20205;-61
2022/02/28 05:23:07;;;;;;;12.83;8.50;;;-1.10;99.90;;;;;;5095578;28;20672;-61
2022/02/28 05:25:34;;;;;;;11.37;7.83;;;-1.10;99.90;;;;;;5095282;28;20216;-61
2022/02/28 05:28:01;;;;;;;11.90;8.17;;;-1.00;99.90;;;;;;5095481;28;20253;-61
2022/02/28 05:30:29;;;;;;;16.80;9.73;;;-1.10;99.90;;;;;;5095411;28;20208;-61
2022/02/28 05:32:56;;;;;;;13.97;9.00;;;-1.00;99.90;;;;;;5095273;28;20223;-61
2022/02/28 05:35:23;;;;;;;12.03;8.13;;;-1.10;99.90;;;;;;5095761;28;20208;-61
2022/02/28 05:37:49;;;;;;;18.50;14.50;;;-1.10;99.90;;;;;;5095400;28;20602;-61
2022/02/28 05:40:16;;;;;;;11.50;8.13;;;-1.10;99.90;;;;;;5095501;28;20219;-61
2022/02/28 05:42:43;;;;;;;13.63;8.57;;;-1.10;99.90;;;;;;5095431;28;20240;-61
2022/02/28 05:45:10;;;;;;;9.97;7.57;;;-1.20;99.90;;;;;;5094805;28;20799;-61
2022/02/28 05:47:42;;;;;;;12.37;8.17;;;-1.30;99.90;;;;;;5095751;28;20239;-61
2022/02/28 05:50:10;;;;;;;11.17;8.30;;;-1.40;99.90;;;;;;5097420;28;20208;-61
2022/02/28 05:52:37;;;;;;;12.70;8.17;;;-1.40;99.90;;;;;;5095741;28;20262;-61
2022/02/28 05:55:05;;;;;;;12.10;7.50;;;-1.40;99.90;;;;;;5095437;28;20209;-60
2022/02/28 05:57:35;;;;;;;12.93;8.23;;;-1.30;99.90;;;;;;5095150;28;20231;-61
2022/02/28 06:00:03;;;;;;;11.30;7.27;;;-1.30;99.90;;;;;;5094982;28;20204;-61
2022/02/28 06:02:30;;;;;;;9.90;7.40;;;-1.30;99.90;;;;;;5094813;28;20701;-61
2022/02/28 06:04:58;;;;;;;16.57;8.50;;;-1.20;99.90;;;;;;5094724;28;20208;-61
2022/02/28 06:07:25;;;;;;;10.00;7.77;;;-1.20;99.90;;;;;;5095217;28;20228;-61
2022/02/28 06:09:51;;;;;;;14.13;8.23;;;-1.30;99.90;;;;;;5094742;28;20204;-61
2022/02/28 06:12:18;;;;;;;13.40;8.87;;;-1.30;99.90;;;;;;5095334;28;20211;-60
2022/02/28 06:14:45;;;;;;;12.70;7.83;;;-1.30;99.90;;;;;;5094564;28;20888;-61
2022/02/28 06:17:11;;;;;;;12.93;8.83;;;-1.30;99.90;;;;;;5094285;28;20235;-66
2022/02/28 06:19:38;;;;;;;15.37;8.23;;;-1.30;99.90;;;;;;5094300;28;20222;-60
2022/02/28 06:22:07;;;;;;;13.23;8.03;;;-1.20;99.90;;;;;;5094412;28;20243;-60
2022/02/28 06:24:33;;;;;;;14.77;7.73;;;-1.20;99.90;;;;;;5094237;28;20200;-60
2022/02/28 06:27:00;;;;;;;12.83;8.90;;;-1.10;99.90;;;;;;5095261;28;20242;-60
2022/02/28 06:29:27;;;;;;;16.17;9.70;;;-1.00;99.90;;;;;;5094170;28;20200;-61
2022/02/28 06:31:53;;;;;;;15.23;10.33;;;-1.00;99.90;;;;;;5094675;28;20207;-61
2022/02/28 06:34:20;;;;;;;15.03;9.87;;;-1.00;99.90;;;;;;5094111;28;20224;-60
2022/02/28 06:36:47;;;;;;;12.93;9.20;;;-0.90;99.90;;;;;;5094287;28;20227;-61
2022/02/28 06:39:15;;;;;;;13.33;9.27;;;-0.90;99.90;;;;;;5094465;28;20208;-60
2022/02/28 06:41:42;;;;;;;13.40;8.97;;;-0.80;99.90;;;;;;5093969;28;20228;-60
2022/02/28 06:44:10;;;;;;;14.00;9.73;;;-0.70;99.90;;;;;;5093821;28;20204;-60
2022/02/28 06:46:37;;;;;;;13.13;9.23;;;-0.70;99.90;;;;;;5093886;28;20647;-62
2022/02/28 06:49:03;;;;;;;15.97;9.63;;;-0.60;99.90;;;;;;5096059;28;20215;-61
2022/02/28 06:51:30;;;;;;;14.27;9.53;;;-0.60;99.90;;;;;;5094425;28;20204;-61
2022/02/28 06:53:57;;;;;;;15.53;10.10;;;-0.60;99.90;;;;;;5093493;28;20600;-61
2022/02/28 06:56:25;;;;;;;15.70;10.43;;;-0.10;99.90;;;;;;5094122;28;20299;-61
2022/02/28 06:58:52;;;;;;;15.87;9.47;;;0.90;99.90;;;;;;5093965;28;20273;-60
2022/02/28 07:01:19;;;;;;;15.43;10.53;;;2.00;99.90;;;;;;5094664;28;20211;-61
2022/02/28 07:03:45;;;;;;;16.70;10.60;;;3.00;99.90;;;;;;5092943;28;20208;-61
2022/02/28 07:06:13;;;;;;;15.10;9.67;;;3.80;99.90;;;;;;5093684;28;20211;-60
2022/02/28 07:08:40;;;;;;;13.93;9.17;;;4.10;99.20;;;;;;5094098;28;20220;-61
2022/02/28 07:11:08;;;;;;;14.93;10.03;;;4.10;98.90;;;;;;5094059;28;20204;-61
2022/02/28 07:13:36;;;;;;;14.13;8.60;;;4.00;98.90;;;;;;5094308;28;20384;-62
2022/02/28 07:16:03;;;;;;;13.03;8.17;;;4.10;99.00;;;;;;5093362;28;20558;-59
2022/02/28 07:18:30;;;;;;;15.13;8.20;;;4.60;98.90;;;;;;5094092;28;20239;-61
2022/02/28 07:20:57;;;;;;;12.47;7.83;;;5.40;98.10;;;;;;5093582;28;20211;-61
2022/02/28 07:23:24;;;;;;;11.10;7.23;;;6.30;96.90;;;;;;5093235;28;20200;-62
2022/02/28 07:25:50;;;;;;;11.77;7.43;;;7.30;95.50;;;;;;5093492;28;20532;-62
2022/02/28 07:28:17;;;;;;;10.37;7.90;;;8.20;94.00;;;;;;5093502;28;20227;-60
2022/02/28 07:30:45;;;;;;;12.17;7.63;;;8.90;92.80;;;;;;5093070;28;20257;-62
2022/02/28 07:33:12;;;;;;;13.13;7.90;;;9.50;91.40;;;;;;5092867;28;20220;-66
2022/02/28 07:35:39;;;;;;;9.67;7.53;;;9.90;90.60;;;;;;5092564;28;20208;-62
2022/02/28 07:38:06;;;;;;;11.37;7.03;;;10.30;89.00;;;;;;5093527;28;20235;-63
2022/02/28 07:40:33;;;;;;;12.47;8.10;;;10.70;87.00;;;;;;5093160;28;20220;-63
2022/02/28 07:43:00;;;;;;;13.20;8.27;;;10.80;85.60;;;;;;5093143;28;20664;-63
2022/02/28 07:45:27;;;;;;;13.23;9.07;;;10.10;85.50;;;;;;5093505;28;20211;-63
2022/02/28 07:47:55;;;;;;;12.10;8.20;;;9.10;88.20;;;;;;5092946;28;20293;-63
2022/02/28 07:50:21;;;;;;;11.03;7.70;;;8.00;90.10;;;;;;5092703;28;20208;-62
2022/02/28 07:52:48;;;;;;;11.70;8.77;;;7.20;91.00;;;;;;5092937;28;20211;-60
2022/02/28 07:55:15;;;;;;;12.23;8.13;;;6.40;92.00;;;;;;5091870;28;20237;-62
2022/02/28 07:57:42;;;;;;;9.97;8.03;;;5.80;93.20;;;;;;5091862;28;20258;-60
2022/02/28 08:00:10;;;;;;;14.33;8.13;;;5.40;93.80;;;;;;5092478;28;20547;-62
2022/02/28 08:02:37;;;;;;;10.63;7.57;;;5.10;94.40;;;;;;5092279;28;20213;-60
2022/02/28 08:05:05;;;;;;;10.93;7.30;;;4.90;94.60;;;;;;5092178;28;20414;-60
2022/02/28 08:07:32;;;;;;;11.77;7.30;;;4.80;94.50;;;;;;5092139;28;20273;-60
2022/02/28 08:09:59;;;;;;;10.70;7.13;;;4.70;94.90;;;;;;5091995;28;20212;-59
2022/02/28 08:12:28;;;;;;;10.90;7.27;;;4.60;94.60;;;;;;5092189;28;20234;-57
2022/02/28 08:14:55;;;;;;;10.10;7.20;;;4.50;94.60;;;;;;5093486;28;20273;-59
2022/02/28 08:17:22;;;;;;;9.60;7.27;;;4.40;94.90;;;;;;5095609;28;20236;-58
2022/02/28 08:19:49;;;;;;;12.10;7.93;;;4.40;95.00;;;;;;5096276;28;20215;-59
2022/02/28 08:22:17;;;;;;;9.47;7.70;;;4.40;95.10;;;;;;5096051;28;20668;-59
2022/02/28 08:24:44;;;;;;;12.67;7.43;;;4.50;95.10;;;;;;5095884;28;20576;-59
2022/02/28 08:27:10;;;;;;;9.23;7.03;;;4.50;95.30;;;;;;5095947;28;20228;-61
2022/02/28 08:29:37;;;;;;;13.23;7.53;;;4.50;95.30;;;;;;5095813;28;20204;-60
2022/02/28 08:32:05;;;;;;;12.37;8.33;;;4.50;95.50;;;;;;5096178;28;20208;-60
2022/02/28 08:34:31;;;;;;;15.80;8.00;;;4.60;95.50;;;;;;5095324;28;20595;-59
2022/02/28 08:36:58;;;;;;;9.37;7.17;;;4.70;95.50;;;;;;5095568;28;20232;-60
2022/02/28 08:39:26;;;;;;;14.57;9.10;;;4.90;95.40;;;;;;5095449;28;20687;-60
2022/02/28 08:41:53;;;;;;;11.13;8.03;;;5.00;95.20;;;;;;5095848;28;20216;-60
2022/02/28 08:44:20;;;;;;;12.13;8.33;;;5.10;95.20;;;;;;5095244;28;20208;-60
2022/02/28 08:46:46;;;;;;;15.37;8.87;;;5.20;95.20;;;;;;5095623;28;20585;-59
2022/02/28 08:49:16;;;;;;;14.37;9.10;;;5.30;95.10;;;;;;5095385;28;20216;-60
2022/02/28 08:51:44;;;;;;;12.70;8.10;;;5.40;95.00;;;;;;5095622;28;20641;-60
2022/02/28 08:54:10;;;;;;;11.00;8.17;;;5.60;94.70;;;;;;5096386;28;20632;-64
2022/02/28 08:56:39;;;;;;;10.83;7.73;;;5.70;94.70;;;;;;5095814;28;20587;-62
2022/02/28 08:59:06;;;;;;;12.73;8.30;;;5.80;94.50;;;;;;5096008;28;20208;-60
2022/02/28 09:01:33;;;;;;;14.23;10.37;;;6.00;94.10;;;;;;5095321;28;20501;-60
2022/02/28 09:04:00;;;;;;;13.93;8.30;;;6.00;94.10;;;;;;5095619;28;20204;-58
2022/02/28 09:06:27;;;;;;;13.03;8.07;;;6.00;93.90;;;;;;5095124;28;20208;-60
2022/02/28 09:08:54;;;;;;;13.70;8.47;;;5.90;94.00;;;;;;5095834;28;20285;-60
2022/02/28 09:11:22;;;;;;;12.80;8.00;;;5.90;94.10;;;;;;5095522;28;20215;-60
2022/02/28 09:13:51;;;;;;;13.60;8.17;;;5.90;94.30;;;;;;5095353;28;20300;-59
2022/02/28 09:16:18;;;;;;;14.80;8.67;;;6.00;93.80;;;;;;5095500;28;20204;-57
2022/02/28 09:18:44;;;;;;;11.70;8.23;;;5.90;93.70;;;;;;5096408;28;20240;-59
2022/02/28 09:21:11;;;;;;;11.53;8.00;;;6.10;93.60;;;;;;5095642;28;20204;-62
2022/02/28 09:23:38;;;;;;;13.40;8.43;;;6.20;93.20;;;;;;5095447;28;20273;-58
2022/02/28 09:26:06;;;;;;;11.80;8.63;;;6.20;93.70;;;;;;5094167;28;20207;-60
2022/02/28 09:28:32;;;;;;;14.23;9.23;;;6.10;92.90;;;;;;5085301;28;20691;-59
2022/02/28 09:31:01;;;;;;;11.33;7.70;;;6.60;93.00;;;;;;5074532;28;20205;-64
2022/02/28 09:33:28;;;;;;;11.27;8.40;;;6.80;92.80;;;;;;5073956;28;20374;-60
2022/02/28 09:35:54;;;;;;;13.93;8.60;;;6.80;92.80;;;;;;5074170;28;20219;-61
2022/02/28 09:38:22;;;;;;;15.37;8.40;;;7.00;92.10;;;;;;5073852;28;20233;-62
2022/02/28 09:40:50;;;;;;;12.43;8.40;;;7.00;91.70;;;;;;5074538;28;20283;-60
2022/02/28 09:43:18;;;;;;;12.67;8.80;;;6.90;91.60;;;;;;5074425;28;20672;-59
2022/02/28 09:45:46;;;;;;;16.07;8.23;;;6.80;91.80;;;;;;5073856;28;20661;-59
2022/02/28 09:48:15;;;;;;;13.23;8.80;;;6.60;91.80;;;;;;5073751;28;20237;-64
2022/02/28 09:50:42;;;;;;;11.32;8.57;;;6.60;92.50;;;;;;5073596;28;20434;-60
2022/02/28 09:53:09;;;;;;;12.73;9.98;;;7.10;98.00;;;;;;5075219;28;20449;-64
2022/02/28 09:55:36;;;;;;;10.40;7.60;;;7.30;91.70;;;;;;5075359;28;20264;-60
2022/02/28 09:58:03;;;;;;;9.93;7.73;;;7.50;91.60;;;;;;5075767;28;20220;-62
2022/02/28 10:00:30;;;;;;;10.53;8.27;;;7.70;91.20;;;;;;5075916;28;20205;-62
2022/02/28 10:02:57;;;;;;;9.63;7.43;;;7.90;91.50;;;;;;5075632;28;20208;-62
2022/02/28 10:05:26;;;;;;;11.90;8.17;;;8.20;90.50;;;;;;5074518;28;20201;-61
2022/02/28 10:07:54;;;;;;;9.90;7.97;;;8.50;90.40;;;;;;5074457;28;20608;-60
2022/02/28 10:10:22;;;;;;;9.63;7.67;;;8.70;90.70;;;;;;5075982;28;20213;-61
2022/02/28 10:12:50;;;;;;;12.47;8.17;;;8.90;88.90;;;;;;5074795;28;20207;-63
2022/02/28 10:15:18;;;;;;;13.77;7.97;;;8.90;90.40;;;;;;5074236;28;20237;-63
2022/02/28 10:17:48;;;;;;;10.20;8.13;;;9.10;89.20;;;;;;5073528;28;20285;-59
2022/02/28 10:20:21;;;;;;;12.97;8.27;;;9.10;89.10;;;;;;5073704;28;20558;-60
2022/02/28 10:22:53;;;;;;;9.93;7.90;;;9.10;87.50;;;;;;5073252;28;20223;-60
2022/02/28 10:25:34;;;;;;;12.43;7.93;;;9.30;87.30;;;;;;5072877;28;20226;-59
2022/02/28 10:28:18;;;;;;;10.73;8.00;;;9.20;86.20;;;;;;5073605;28;20225;-60
2022/02/28 10:30:54;;;;;;;12.87;7.43;;;9.20;85.30;;;;;;5073822;28;20208;-59
2022/02/28 10:33:27;;;;;;;10.27;8.13;;;9.30;85.90;;;;;;5073344;28;20200;-59
2022/02/28 10:36:10;;;;;;;10.73;7.43;;;9.40;85.60;;;;;;5073028;28;20197;-59
2022/02/28 10:38:44;;;;;;;10.63;7.90;;;9.40;85.20;;;;;;5073260;28;20274;-59
2022/02/28 10:41:21;;;;;;;10.70;7.70;;;9.20;84.70;;;;;;5073162;28;20232;-59
2022/02/28 10:43:48;;;;;;;9.93;7.17;;;9.10;84.40;;;;;;5073734;28;20295;-59
2022/02/28 10:46:19;;;;;;;10.60;7.70;;;9.00;84.00;;;;;;5073797;28;20291;-57
2022/02/28 10:49:07;;;;;;;10.70;7.70;;;8.70;84.30;;;;;;5074377;28;20236;-59
2022/02/28 10:51:47;;;;;;;11.23;8.03;;;8.80;84.70;;;;;;5073631;28;20270;-59
2022/02/28 10:54:20;;;;;;;12.53;7.37;;;8.70;84.30;;;;;;5073085;28;20274;-59
2022/02/28 10:56:56;;;;;;;9.80;7.47;;;8.90;85.80;;;;;;5073204;28;20275;-60
2022/02/28 10:59:25;;;;;;;10.17;7.07;;;9.00;83.90;;;;;;5073508;28;20208;-60
2022/02/28 11:01:52;;;;;;;10.63;8.17;;;9.10;83.70;;;;;;5073856;28;20208;-60
2022/02/28 11:04:30;;;;;;;11.27;7.43;;;9.00;84.60;;;;;;5074923;28;20216;-59
2022/02/28 11:06:57;;;;;;;11.90;8.27;;;8.90;83.60;;;;;;5075059;28;20265;-59
2022/02/28 11:09:36;;;;;;;13.13;8.73;;;8.90;84.50;;;;;;5073972;28;20204;-59
2022/02/28 11:12:25;;;;;;;11.60;7.83;;;9.00;84.10;;;;;;5074475;28;20208;-59
2022/02/28 11:14:54;;;;;;;12.97;8.60;;;9.30;83.50;;;;;;5073596;28;20231;-59
2022/02/28 11:17:22;;;;;;;11.00;7.77;;;9.50;85.80;;;;;;5073566;28;20236;-60
2022/02/28 11:19:51;;;;;;;10.53;8.00;;;;;;;;;;5073207;28;20204;-59
2022/02/28 11:22:18;;;;;;;10.60;7.87;;;;;;;;;;5073182;28;20243;-60
2022/02/28 11:24:46;;;;;;;12.40;8.53;;;;;;;;;;5072898;28;20196;-60
2022/02/28 11:27:13;;;;;;;9.73;7.03;;;;;;;;;;5073555;28;20256;-60
2022/02/28 11:29:41;;;;;;;9.73;7.77;;;9.90;81.00;;;;;;5073643;28;20204;-59
2022/02/28 11:32:09;;;;;;;9.93;7.27;;;9.90;81.20;;;;;;5073569;28;20215;-59
2022/02/28 11:34:36;;;;;;;11.47;7.57;;;10.00;78.90;;;;;;5073234;28;20227;-60
2022/02/28 11:37:05;;;;;;;13.53;7.90;;;10.00;78.60;;;;;;5073068;28;20229;-60
2022/02/28 11:39:34;;;;;;;11.43;7.77;;;10.10;78.90;;;;;;5072712;28;20215;-60
2022/02/28 11:42:05;;;;;;;10.13;7.83;;;10.30;79.00;;;;;;5073117;28;20292;-59
2022/02/28 11:44:37;;;;;;;10.37;8.07;;;10.60;78.30;;;;;;5073367;28;20211;-58
2022/02/28 11:47:07;;;;;;;10.63;7.27;;;10.80;77.60;;;;;;5074307;28;20228;-59
2022/02/28 11:49:42;;;;;;;10.27;7.73;;;11.00;76.90;;;;;;5074981;28;20694;-58
2022/02/28 11:52:32;;;;;;;9.80;7.13;;;11.20;76.50;;;;;;5077946;28;20226;-59
2022/02/28 11:54:59;;;;;;;11.57;7.40;;;11.30;75.60;;;;;;5078424;28;20220;-59
2022/02/28 11:57:53;;;;;;;13.83;8.17;;;11.30;75.80;;;;;;5079025;28;20228;-59
2022/02/28 12:00:21;;;;;;;9.70;7.10;;;11.40;75.30;;;;;;5079158;28;20844;-59
2022/02/28 12:02:48;;;;;;;8.80;7.13;;;11.50;74.00;;;;;;5079783;28;20204;-59
2022/02/28 12:05:40;;;;;;;9.07;7.30;;;11.60;73.70;;;;;;5079656;28;20259;-59
2022/02/28 12:08:10;;;;;;;8.93;7.73;;;11.60;73.30;;;;;;5075030;28;20445;-60
2022/02/28 12:10:38;;;;;;;11.13;7.37;;;11.70;73.00;;;;;;5059369;28;20209;-63
2022/02/28 12:13:06;;;;;;;9.80;7.80;;;11.60;72.60;;;;;;5060757;28;20209;-60
2022/02/28 12:15:33;;;;;;;9.53;7.43;;;11.50;73.30;;;;;;5061168;28;20228;-59
2022/02/28 12:18:06;;;;;;;11.07;8.10;;;11.60;73.10;;;;;;5059330;28;20260;-61
2022/02/28 12:20:36;;;;;;;12.27;7.80;;;11.70;72.90;;;;;;5060314;28;20288;-62
2022/02/28 12:23:25;;;;;;;9.67;7.20;;;11.90;72.40;;;;;;5059488;28;20212;-60
2022/02/28 12:26:12;;;;;;;9.73;7.20;;;12.00;70.90;;;;;;5058815;28;20198;-60
2022/02/28 12:28:49;;;;;;;8.53;7.13;;;12.10;70.10;;;;;;5055604;28;20237;-60
2022/02/28 12:31:20;;;;;;;9.17;6.67;;;12.10;68.30;;;;;;5080047;28;20208;-60
2022/02/28 12:34:05;;;;;;;11.03;7.07;;;12.10;70.10;;;;;;5079044;28;20204;-60
2022/02/28 12:36:33;;;;;;;11.27;8.17;;;12.10;70.00;;;;;;5079469;28;20291;-59
2022/02/28 12:39:04;;;;;;;12.73;7.70;;;12.20;69.50;;;;;;5080953;28;20223;-60
2022/02/28 12:41:32;;;;;;;12.13;7.40;;;12.30;68.80;;;;;;5080753;28;20204;-60
2022/02/28 12:44:04;;;;;;;9.20;6.83;;;12.40;68.20;;;;;;5080330;28;20205;-60
2022/02/28 12:46:35;;;;;;;9.13;7.17;;;12.40;68.10;;;;;;5079280;28;20232;-60
2022/02/28 12:49:02;;;;;;;10.57;7.10;;;12.20;67.20;;;;;;5079899;28;20570;-61
2022/02/28 12:51:31;;;;;;;9.83;6.97;;;11.90;68.70;;;;;;5079058;28;20233;-60
2022/02/28 12:54:03;;;;;;;10.17;6.60;;;12.00;68.60;;;;;;5078699;28;20641;-60